createdAt,value
2019-05-30T00:01:39.312Z,100644.84
2019-05-30T00:04:09.403Z,100641.86
2019-05-30T00:06:39.401Z,100643.46
2019-05-30T00:09:10.172Z,100640.83
2019-05-30T00:11:40.175Z,100645.65
2019-05-30T00:14:10.159Z,100640.16
2019-05-30T00:16:41.086Z,100642.01
2019-05-30T00:19:11.081Z,100638.06
2019-05-30T00:21:41.103Z,100641.41
2019-05-30T00:24:11.088Z,100641.66
2019-05-30T00:26:41.148Z,100644.04
2019-05-30T00:29:12.242Z,100634.77
2019-05-30T00:31:42.235Z,100638.65
2019-05-30T00:34:13.408Z,100642.11
2019-05-30T00:36:43.574Z,100648.69
2019-05-30T00:39:13.708Z,100646.75
2019-05-30T00:41:43.800Z,100647.53
2019-05-30T00:44:13.852Z,100646.70
2019-05-30T00:46:43.901Z,100642.50
2019-05-30T00:49:13.972Z,100634.31
2019-05-30T00:51:44.009Z,100628.81
2019-05-30T00:54:14.003Z,100628.21
2019-05-30T00:56:44.025Z,100633.39
2019-05-30T00:59:15.098Z,100629.45
2019-05-30T01:01:45.122Z,100627.30
2019-05-30T01:04:15.110Z,100629.47
2019-05-30T01:06:45.132Z,100635.58
2019-05-30T01:09:15.135Z,100638.20
2019-05-30T01:11:45.131Z,100639.11
2019-05-30T01:14:15.136Z,100637.42
2019-05-30T01:16:45.155Z,100635.58
2019-05-30T01:19:15.968Z,100639.20
2019-05-30T01:21:46.210Z,100634.94
2019-05-30T01:24:17.273Z,100636.16
2019-05-30T01:26:47.319Z,100631.09
2019-05-30T01:29:17.311Z,100635.03
2019-05-30T01:31:47.359Z,100625.75
2019-05-30T01:34:17.367Z,100629.16
2019-05-30T01:36:47.356Z,100628.61
2019-05-30T01:39:17.514Z,100623.82
2019-05-30T01:41:47.542Z,100624.99
2019-05-30T01:44:17.527Z,100628.69
2019-05-30T01:46:47.545Z,100622.36
2019-05-30T01:49:17.614Z,100622.22
2019-05-30T01:51:47.636Z,100629.15
2019-05-30T01:54:17.632Z,100625.30
2019-05-30T01:56:47.629Z,100622.74
2019-05-30T01:59:17.630Z,100621.66
2019-05-30T02:01:47.635Z,100624.38
2019-05-30T02:04:17.633Z,100624.81
2019-05-30T02:06:47.621Z,100612.47
2019-05-30T02:09:17.738Z,100608.62
2019-05-30T02:11:47.941Z,100602.89
2019-05-30T02:14:18.001Z,100607.06
2019-05-30T02:16:48.065Z,100599.81
2019-05-30T02:19:18.244Z,100600.28
2019-05-30T02:21:48.249Z,100597.09
2019-05-30T02:24:19.252Z,100594.32
2019-05-30T02:26:49.241Z,100595.72
2019-05-30T02:29:19.302Z,100588.92
2019-05-30T02:31:50.365Z,100574.61
2019-05-30T02:34:20.389Z,100581.53
2019-05-30T02:36:50.489Z,100575.50
2019-05-30T02:39:21.509Z,100577.34
2019-05-30T02:41:51.583Z,100573.13
2019-05-30T02:44:21.615Z,100580.30
2019-05-30T02:46:53.259Z,100569.09
2019-05-30T02:49:23.283Z,100583.58
2019-05-30T02:51:53.259Z,100575.57
2019-05-30T02:54:23.277Z,100577.86
2019-05-30T02:56:53.264Z,100579.05
2019-05-30T02:59:23.415Z,100579.42
2019-05-30T03:02:01.161Z,100578.73
2019-05-30T03:04:25.135Z,100580.64
2019-05-30T03:06:55.324Z,100572.19
2019-05-30T03:09:25.345Z,100573.66
2019-05-30T03:11:55.592Z,100566.97
2019-05-30T03:14:25.813Z,100561.77
2019-05-30T03:16:55.860Z,100565.02
2019-05-30T03:19:25.849Z,100572.13
2019-05-30T03:21:55.932Z,100568.34
2019-05-30T03:24:25.917Z,100559.14
2019-05-30T03:26:56.029Z,100563.71
2019-05-30T03:29:26.075Z,100571.78
2019-05-30T03:31:56.477Z,100567.94
2019-05-30T03:34:28.864Z,100570.97
2019-05-30T03:36:58.310Z,100575.23
2019-05-30T03:39:28.431Z,100568.47
2019-05-30T03:41:59.645Z,100564.73
2019-05-30T03:44:29.645Z,100566.25
2019-05-30T03:47:03.869Z,100566.84
2019-05-30T03:49:37.126Z,100556.80
2019-05-30T03:52:10.669Z,100547.65
2019-05-30T03:54:41.497Z,100554.06
2019-05-30T03:57:17.545Z,100544.70
2019-05-30T03:59:59.650Z,100542.23
2019-05-30T04:02:56.166Z,100533.41
2019-05-30T04:05:31.409Z,100530.23
2019-05-30T04:08:04.388Z,100524.67
2019-05-30T04:10:37.413Z,100525.94
2019-05-30T04:13:12.126Z,100517.67
2019-05-30T04:15:42.325Z,100524.58
2019-05-30T04:18:14.148Z,100519.83
2019-05-30T04:20:44.049Z,100515.56
2019-05-30T04:23:16.683Z,100514.61
2019-05-30T04:25:46.602Z,100511.09
2019-05-30T04:28:18.541Z,100515.63
2019-05-30T04:30:48.349Z,100515.61
2019-05-30T04:33:31.566Z,100499.82
2019-05-30T04:35:50.097Z,100514.83
2019-05-30T04:38:20.160Z,100513.55
2019-05-30T04:40:50.183Z,100503.89
2019-05-30T04:43:20.466Z,100502.61
2019-05-30T04:45:50.562Z,100502.08
2019-05-30T04:48:21.264Z,100496.71
2019-05-30T04:50:51.540Z,100489.47
2019-05-30T04:53:21.534Z,100489.66
2019-05-30T04:55:51.539Z,100486.97
2019-05-30T04:58:24.145Z,100486.26
2019-05-30T05:00:53.297Z,100480.89
2019-05-30T05:03:44.362Z,100482.28
2019-05-30T05:05:55.000Z,100480.16
2019-05-30T05:08:25.010Z,100471.28
2019-05-30T05:10:55.068Z,100465.48
2019-05-30T05:13:25.052Z,100462.30
2019-05-30T05:15:55.089Z,100468.14
2019-05-30T05:18:25.073Z,100466.63
2019-05-30T05:20:55.072Z,100466.22
2019-05-30T05:23:25.086Z,100458.16
2019-05-30T05:26:01.061Z,100453.84
2019-05-30T05:28:26.931Z,100448.39
2019-05-30T05:30:56.954Z,100450.68
2019-05-30T05:33:26.939Z,100450.28
2019-05-30T05:35:56.987Z,100440.33
2019-05-30T05:38:27.004Z,100444.66
2019-05-30T05:40:57.105Z,100440.13
2019-05-30T05:43:28.669Z,100444.02
2019-05-30T05:45:58.825Z,100441.20
2019-05-30T05:48:28.942Z,100438.45
2019-05-30T05:50:58.924Z,100431.33
2019-05-30T05:53:29.983Z,100433.38
2019-05-30T05:56:00.041Z,100433.40
2019-05-30T05:58:30.040Z,100426.80
2019-05-30T06:01:00.029Z,100425.55
2019-05-30T06:03:30.034Z,100428.25
2019-05-30T06:06:00.013Z,100419.70
2019-05-30T06:08:30.074Z,100423.16
2019-05-30T06:11:00.130Z,100419.03
2019-05-30T06:13:30.151Z,100415.53
2019-05-30T06:16:00.128Z,100414.24
2019-05-30T06:18:31.161Z,100415.86
2019-05-30T06:21:01.184Z,100407.84
2019-05-30T06:23:31.203Z,100400.95
2019-05-30T06:26:01.251Z,100402.36
2019-05-30T06:28:31.243Z,100400.38
2019-05-30T06:31:01.251Z,100394.30
2019-05-30T06:33:31.235Z,100392.97
2019-05-30T06:36:02.880Z,100386.01
2019-05-30T06:38:32.872Z,100380.92
2019-05-30T06:41:02.967Z,100377.06
2019-05-30T06:43:32.958Z,100379.62
2019-05-30T06:46:02.998Z,100372.47
2019-05-30T06:48:32.997Z,100366.17
2019-05-30T06:51:03.027Z,100370.20
2019-05-30T06:53:33.087Z,100364.21
2019-05-30T06:56:03.115Z,100366.06
2019-05-30T06:58:47.417Z,100354.97
2019-05-30T07:01:05.203Z,100365.90
2019-05-30T07:03:35.288Z,100361.36
2019-05-30T07:06:07.284Z,100358.73
2019-05-30T07:08:37.621Z,100356.48
2019-05-30T07:11:07.620Z,100357.45
2019-05-30T07:13:37.711Z,100354.33
2019-05-30T07:16:07.766Z,100358.94
2019-05-30T07:18:37.868Z,100349.73
2019-05-30T07:21:07.927Z,100354.99
2019-05-30T07:23:39.575Z,100352.44
2019-05-30T07:26:09.934Z,100350.17
2019-05-30T07:28:39.917Z,100340.88
2019-05-30T07:31:10.019Z,100339.09
2019-05-30T07:33:40.010Z,100336.92
2019-05-30T07:36:11.287Z,100325.55
2019-05-30T07:38:41.322Z,100332.14
2019-05-30T07:41:11.385Z,100314.36
2019-05-30T07:43:41.388Z,100320.18
2019-05-30T07:46:11.552Z,100305.91
2019-05-30T07:48:41.512Z,100306.17
2019-05-30T07:51:11.666Z,100306.09
2019-05-30T07:53:41.744Z,100301.95
2019-05-30T07:56:11.745Z,100300.53
2019-05-30T07:58:41.743Z,100297.42
2019-05-30T08:01:11.831Z,100295.38
2019-05-30T08:03:41.821Z,100283.52
2019-05-30T08:06:11.910Z,100287.66
2019-05-30T08:08:41.994Z,100287.81
2019-05-30T08:11:12.001Z,100275.88
2019-05-30T08:13:42.077Z,100274.20
2019-05-30T08:16:12.110Z,100265.25
2019-05-30T08:18:42.137Z,100262.33
2019-05-30T08:21:12.122Z,100253.33
2019-05-30T08:23:42.287Z,100257.57
2019-05-30T08:26:12.326Z,100244.89
2019-05-30T08:28:42.749Z,100247.88
2019-05-30T08:31:13.022Z,100243.69
2019-05-30T08:33:43.011Z,100239.12
2019-05-30T08:36:14.478Z,100237.67
2019-05-30T08:38:47.963Z,100232.38
2019-05-30T08:41:16.271Z,100225.45
2019-05-30T08:43:46.272Z,100216.04
2019-05-30T08:46:17.285Z,100224.59
2019-05-30T08:48:47.291Z,100209.81
2019-05-30T08:51:17.326Z,100208.36
2019-05-30T08:53:47.308Z,100205.63
2019-05-30T08:56:17.405Z,100184.75
2019-05-30T08:58:47.399Z,100186.23
2019-05-30T09:01:17.422Z,100178.48
2019-05-30T09:03:47.429Z,100184.75
2019-05-30T09:06:17.481Z,100173.53
2019-05-30T09:08:47.493Z,100170.27
2019-05-30T09:11:17.550Z,100162.87
2019-05-30T09:13:47.564Z,100162.23
2019-05-30T09:16:17.728Z,100151.41
2019-05-30T09:18:47.709Z,100155.81
2019-05-30T09:21:17.903Z,100147.14
2019-05-30T09:23:48.206Z,100145.58
2019-05-30T09:26:18.357Z,100135.23
2019-05-30T09:28:48.367Z,100127.48
2019-05-30T09:31:18.390Z,100130.72
2019-05-30T09:33:48.702Z,100118.30
2019-05-30T09:36:18.913Z,100108.11
2019-05-30T09:38:49.733Z,100104.27
2019-05-30T09:41:19.934Z,100096.23
2019-05-30T09:43:50.225Z,100090.55
2019-05-30T09:46:20.410Z,100075.81
2019-05-30T09:48:51.699Z,100072.31
2019-05-30T09:51:21.842Z,100068.00
2019-05-30T09:53:52.846Z,100054.59
2019-05-30T09:56:22.967Z,100052.92
2019-05-30T09:58:52.977Z,100036.97
2019-05-30T10:01:23.018Z,100030.46
2019-05-30T10:03:53.095Z,100034.69
2019-05-30T10:06:29.528Z,100033.44
2019-05-30T10:08:55.075Z,100016.79
2019-05-30T10:11:25.139Z,100016.79
2019-05-30T10:13:56.901Z,100014.99
2019-05-30T10:16:27.124Z,100009.38
2019-05-30T10:18:57.233Z,100015.97
2019-05-30T10:21:27.269Z,99997.75
2019-05-30T10:23:57.629Z,100000.96
2019-05-30T10:26:27.696Z,99998.39
2019-05-30T10:28:57.764Z,99995.20
2019-05-30T10:31:27.817Z,99993.94
2019-05-30T10:33:57.894Z,99991.61
2019-05-30T10:36:27.988Z,99984.31
2019-05-30T10:38:57.977Z,99987.93
2019-05-30T10:41:28.010Z,99981.59
2019-05-30T10:43:58.007Z,99977.16
2019-05-30T10:46:28.042Z,99979.09
2019-05-30T10:48:58.128Z,99969.51
2019-05-30T10:51:28.149Z,99965.05
2019-05-30T10:53:58.186Z,99961.38
2019-05-30T10:56:28.174Z,99958.25
2019-05-30T10:58:58.198Z,99954.17
2019-05-30T11:01:28.461Z,99949.84
2019-05-30T11:03:58.588Z,99949.99
2019-05-30T11:06:38.593Z,99940.39
2019-05-30T11:09:08.729Z,99946.95
2019-05-30T11:11:38.740Z,99951.03
2019-05-30T11:14:08.783Z,99952.48
2019-05-30T11:16:38.773Z,99946.08
2019-05-30T11:19:08.786Z,99948.81
2019-05-30T11:21:39.832Z,99942.21
2019-05-30T11:24:09.950Z,99940.19
2019-05-30T11:26:39.924Z,99928.09
2019-05-30T11:29:09.957Z,99928.56
2019-05-30T11:31:40.034Z,99921.36
2019-05-30T11:34:10.049Z,99920.56
2019-05-30T11:36:40.046Z,99930.86
2019-05-30T11:39:10.105Z,99927.03
2019-05-30T11:41:40.141Z,99913.84
2019-05-30T11:44:10.111Z,99904.38
2019-05-30T11:46:40.149Z,99898.34
2019-05-30T11:49:10.153Z,99908.11
2019-05-30T11:51:40.665Z,99897.42
2019-05-30T11:54:11.754Z,99896.32
2019-05-30T11:56:42.104Z,99882.53
2019-05-30T11:59:12.227Z,99889.29
2019-05-30T12:01:42.277Z,99887.20
2019-05-30T12:04:12.319Z,99889.75
2019-05-30T12:06:42.371Z,99880.15
2019-05-30T12:09:14.598Z,99880.41
2019-05-30T12:11:44.086Z,99876.30
2019-05-30T12:14:14.113Z,99870.07
2019-05-30T12:16:44.110Z,99875.25
2019-05-30T12:19:14.154Z,99873.59
2019-05-30T12:21:44.153Z,99867.22
2019-05-30T12:24:14.203Z,99859.43
2019-05-30T12:26:44.170Z,99857.14
2019-05-30T12:29:14.156Z,99857.38
2019-05-30T12:31:44.133Z,99853.69
2019-05-30T12:34:14.158Z,99852.24
2019-05-30T12:36:44.232Z,99846.11
2019-05-30T12:39:14.313Z,99849.58
2019-05-30T12:41:44.735Z,99847.19
2019-05-30T12:44:15.076Z,99843.34
2019-05-30T12:46:45.019Z,99842.27
2019-05-30T12:49:15.084Z,99840.34
2019-05-30T12:51:45.127Z,99841.30
2019-05-30T12:54:15.128Z,99833.36
2019-05-30T12:56:45.136Z,99831.57
2019-05-30T12:59:15.207Z,99829.52
2019-05-30T13:01:45.590Z,99832.17
2019-05-30T13:04:15.785Z,99819.19
2019-05-30T13:06:45.807Z,99810.55
2019-05-30T13:09:15.779Z,99809.11
2019-05-30T13:11:45.832Z,99808.52
2019-05-30T13:14:15.817Z,99802.14
2019-05-30T13:16:46.448Z,99797.09
2019-05-30T13:19:16.518Z,99790.39
2019-05-30T13:21:46.635Z,99793.75
2019-05-30T13:24:18.501Z,99784.00
2019-05-30T13:26:48.501Z,99793.14
2019-05-30T13:29:18.552Z,99795.43
2019-05-30T13:31:48.701Z,99786.67
2019-05-30T13:34:20.202Z,99790.50
2019-05-30T13:36:50.240Z,99774.63
2019-05-30T13:39:20.310Z,99770.19
2019-05-30T13:41:50.339Z,99776.22
2019-05-30T13:44:20.316Z,99772.95
2019-05-30T13:46:50.316Z,99769.86
2019-05-30T13:49:25.766Z,99760.09
2019-05-30T13:51:53.305Z,99767.06
2019-05-30T13:54:23.423Z,99759.13
2019-05-30T13:56:53.491Z,99765.16
2019-05-30T13:59:24.753Z,99759.81
2019-05-30T14:01:54.703Z,99756.71
2019-05-30T14:04:24.701Z,99753.37
2019-05-30T14:06:54.742Z,99742.80
2019-05-30T14:09:26.423Z,99743.23
2019-05-30T14:11:56.467Z,99740.28
2019-05-30T14:14:26.454Z,99745.44
2019-05-30T14:16:56.499Z,99734.59
2019-05-30T14:19:28.028Z,99736.08
2019-05-30T14:21:58.068Z,99720.44
2019-05-30T14:24:28.071Z,99713.08
2019-05-30T14:26:59.176Z,99721.98
2019-05-30T14:29:30.124Z,99710.92
2019-05-30T14:32:00.176Z,99717.91
2019-05-30T14:34:30.117Z,99695.27
2019-05-30T14:37:00.137Z,99693.67
2019-05-30T14:39:30.115Z,99701.73
2019-05-30T14:42:00.131Z,99699.41
2019-05-30T14:44:30.122Z,99704.45
2019-05-30T14:47:00.127Z,99701.42
2019-05-30T14:49:30.106Z,99685.22
2019-05-30T14:52:00.118Z,99684.66
2019-05-30T14:54:30.144Z,99675.23
2019-05-30T14:57:00.130Z,99675.23
2019-05-30T14:59:30.118Z,99671.77
2019-05-30T15:02:00.157Z,99674.16
2019-05-30T15:04:30.151Z,99677.33
2019-05-30T15:07:00.481Z,99678.61
2019-05-30T15:09:30.464Z,99668.73
2019-05-30T15:12:00.477Z,99669.42
2019-05-30T15:14:30.460Z,99666.78
2019-05-30T15:17:00.478Z,99663.44
2019-05-30T15:19:30.534Z,99655.02
2019-05-30T15:22:00.608Z,99654.44
2019-05-30T15:24:30.643Z,99660.55
2019-05-30T15:27:00.650Z,99654.67
2019-05-30T15:29:30.623Z,99651.69
2019-05-30T15:32:00.724Z,99648.37
2019-05-30T15:34:30.779Z,99646.02
2019-05-30T15:37:00.832Z,99641.80
2019-05-30T15:39:33.012Z,99645.28
2019-05-30T15:42:02.704Z,99648.77
2019-05-30T15:44:32.790Z,99646.84
2019-05-30T15:47:02.814Z,99645.88
2019-05-30T15:49:32.869Z,99637.15
2019-05-30T15:52:02.860Z,99645.97
2019-05-30T15:54:32.854Z,99646.84
2019-05-30T15:57:02.870Z,99650.19
2019-05-30T15:59:32.859Z,99639.75
2019-05-30T16:02:02.901Z,99651.26
2019-05-30T16:04:32.889Z,99634.70
2019-05-30T16:07:02.908Z,99627.45
2019-05-30T16:09:46.339Z,99636.47
2019-05-30T16:12:04.711Z,99628.44
2019-05-30T16:14:34.695Z,99634.27
2019-05-30T16:17:04.880Z,99627.56
2019-05-30T16:19:34.880Z,99628.09
2019-05-30T16:22:05.069Z,99625.27
2019-05-30T16:24:35.122Z,99628.09
2019-05-30T16:27:05.327Z,99629.13
2019-05-30T16:29:35.310Z,99627.91
2019-05-30T16:32:05.396Z,99631.53
2019-05-30T16:34:35.391Z,99631.78
2019-05-30T16:37:05.401Z,99631.77
2019-05-30T16:39:35.458Z,99633.19
2019-05-30T16:42:05.592Z,99634.70
2019-05-30T16:44:36.910Z,99641.55
2019-05-30T16:47:06.909Z,99633.77
2019-05-30T16:49:36.882Z,99632.73
2019-05-30T16:52:07.061Z,99638.86
2019-05-30T16:54:37.047Z,99625.27
2019-05-30T16:57:07.150Z,99631.92
2019-05-30T16:59:37.136Z,99619.03
2019-05-30T17:02:07.190Z,99617.08
2019-05-30T17:04:37.233Z,99629.70
2019-05-30T17:07:07.301Z,99628.59
2019-05-30T17:09:37.296Z,99626.41
2019-05-30T17:12:07.311Z,99621.98
2019-05-30T17:14:37.296Z,99629.91
2019-05-30T17:17:07.303Z,99626.51
2019-05-30T17:19:39.547Z,99637.94
2019-05-30T17:22:09.105Z,99635.69
2019-05-30T17:24:39.174Z,99634.34
2019-05-30T17:27:09.220Z,99637.69
2019-05-30T17:29:40.240Z,99636.66
2019-05-30T17:32:10.230Z,99639.84
2019-05-30T17:34:40.198Z,99642.64
2019-05-30T17:37:11.282Z,99640.96
2019-05-30T17:39:41.332Z,99641.41
2019-05-30T17:42:11.404Z,99635.44
2019-05-30T17:44:41.539Z,99636.66
2019-05-30T17:47:11.564Z,99639.90
2019-05-30T17:49:41.553Z,99637.05
2019-05-30T17:52:11.606Z,99643.66
2019-05-30T17:54:43.364Z,99642.45
2019-05-30T17:57:13.477Z,99648.46
2019-05-30T17:59:43.532Z,99640.18
2019-05-30T18:02:13.570Z,99641.85
2019-05-30T18:04:43.560Z,99640.78
2019-05-30T18:07:14.710Z,99636.86
2019-05-30T18:09:44.826Z,99632.17
2019-05-30T18:12:14.816Z,99630.73
2019-05-30T18:14:44.812Z,99634.22
2019-05-30T18:17:14.817Z,99640.28
2019-05-30T18:19:44.823Z,99643.28
2019-05-30T18:22:14.895Z,99648.56
2019-05-30T18:24:44.962Z,99644.84
2019-05-30T18:27:15.134Z,99655.07
2019-05-30T18:29:45.201Z,99665.16
2019-05-30T18:32:15.307Z,99667.59
2019-05-30T18:34:45.400Z,99666.37
2019-05-30T18:37:15.687Z,99668.52
2019-05-30T18:39:45.917Z,99666.61
2019-05-30T18:42:15.985Z,99668.52
2019-05-30T18:44:47.656Z,99661.67
2019-05-30T18:47:17.996Z,99677.62
2019-05-30T18:49:48.092Z,99671.41
2019-05-30T18:52:18.088Z,99682.33
2019-05-30T18:54:48.160Z,99681.50
2019-05-30T18:57:18.135Z,99687.58
2019-05-30T18:59:48.186Z,99685.56
2019-05-30T19:02:18.630Z,99694.95
2019-05-30T19:04:48.869Z,99701.80
2019-05-30T19:07:18.857Z,99706.74
2019-05-30T19:09:48.860Z,99711.78
2019-05-30T19:12:18.890Z,99716.59
2019-05-30T19:14:48.902Z,99731.68
2019-05-30T19:17:19.047Z,99729.91
2019-05-30T19:19:51.336Z,99727.99
2019-05-30T19:22:20.752Z,99727.02
2019-05-30T19:24:50.822Z,99741.07
2019-05-30T19:27:20.883Z,99748.03
2019-05-30T19:29:50.929Z,99749.83
2019-05-30T19:32:20.911Z,99751.27
2019-05-30T19:34:50.922Z,99764.51
2019-05-30T19:37:20.903Z,99761.38
2019-05-30T19:39:50.892Z,99766.55
2019-05-30T19:42:21.051Z,99772.44
2019-05-30T19:44:51.079Z,99779.27
2019-05-30T19:47:21.074Z,99782.98
2019-05-30T19:49:51.162Z,99786.75
2019-05-30T19:52:21.144Z,99788.70
2019-05-30T19:54:51.132Z,99796.38
2019-05-30T19:57:21.151Z,99798.43
2019-05-30T19:59:51.121Z,99789.67
2019-05-30T20:02:21.116Z,99796.38
2019-05-30T20:04:51.155Z,99794.70
2019-05-30T20:07:21.166Z,99801.33
2019-05-30T20:10:00.930Z,99810.33
2019-05-30T20:12:22.895Z,99806.83
2019-05-30T20:14:52.911Z,99815.25
2019-05-30T20:17:22.919Z,99817.77
2019-05-30T20:19:52.931Z,99826.90
2019-05-30T20:22:22.932Z,99828.31
2019-05-30T20:24:53.042Z,99830.23
2019-05-30T20:27:23.040Z,99836.09
2019-05-30T20:29:53.038Z,99852.07
2019-05-30T20:32:26.110Z,99857.22
2019-05-30T20:34:56.093Z,99863.47
2019-05-30T20:37:26.100Z,99872.35
2019-05-30T20:39:56.126Z,99874.74
2019-05-30T20:42:26.127Z,99869.84
2019-05-30T20:44:56.125Z,99876.04
2019-05-30T20:47:26.117Z,99881.45
2019-05-30T21:50:05.839Z,100009.95
2019-05-30T21:52:37.121Z,100011.42
2019-05-30T21:55:07.784Z,100017.48
2019-05-30T21:57:37.773Z,100020.23
2019-05-30T22:00:16.813Z,100026.54
2019-05-30T22:02:55.597Z,100032.89
2019-05-30T22:05:25.663Z,100042.31
2019-05-30T22:07:55.749Z,100049.09
2019-05-30T22:10:25.785Z,100059.19
2019-05-30T22:13:08.935Z,100063.33
2019-05-30T22:15:27.577Z,100061.95
2019-05-30T22:17:57.609Z,100065.06
2019-05-30T22:20:27.676Z,100070.61
2019-05-30T22:22:57.669Z,100073.27
2019-05-30T22:25:27.637Z,100077.13
2019-05-30T22:27:57.696Z,100084.45
2019-05-30T22:30:27.690Z,100088.58
2019-05-30T22:32:57.795Z,100093.80
2019-05-30T22:35:27.786Z,100102.72
2019-05-30T22:37:57.789Z,100102.59
2019-05-30T22:40:27.828Z,100104.81
2019-05-30T22:42:57.792Z,100106.89
2019-05-30T22:45:27.789Z,100108.61
2019-05-30T22:47:57.888Z,100102.67
2019-05-30T22:50:27.889Z,100104.45
2019-05-30T22:52:57.924Z,100114.58
2019-05-30T22:55:27.915Z,100111.13
2019-05-30T22:57:57.987Z,100112.92
2019-05-30T23:00:28.152Z,100117.98
2019-05-30T23:02:58.154Z,100124.84
2019-05-30T23:05:28.243Z,100116.10
2019-05-30T23:07:58.196Z,100129.30
2019-05-30T23:10:28.229Z,100122.46
2019-05-30T23:12:58.224Z,100122.63
2019-05-30T23:15:28.321Z,100128.28
2019-05-30T23:17:58.384Z,100127.00
2019-05-30T23:20:28.419Z,100126.13
2019-05-30T23:22:58.403Z,100127.38
2019-05-30T23:25:28.505Z,100127.42
2019-05-30T23:28:00.647Z,100131.63
2019-05-30T23:30:30.644Z,100134.89
2019-05-30T23:33:00.627Z,100135.02
2019-05-30T23:35:30.712Z,100126.84
2019-05-30T23:38:00.711Z,100128.80
2019-05-30T23:40:30.864Z,100136.70
2019-05-30T23:43:01.919Z,100138.22
2019-05-30T23:45:31.911Z,100143.27
2019-05-30T23:48:01.895Z,100148.58
2019-05-30T23:50:31.875Z,100147.20
2019-05-30T23:53:01.864Z,100152.41
2019-05-30T23:55:32.095Z,100160.39
2019-05-30T23:58:02.045Z,100153.52
